createdAt,value
2023-05-12T00:04:04.500Z,96845.44
2023-05-12T00:09:06.432Z,96838.84
2023-05-12T00:14:08.900Z,96835.81
2023-05-12T00:19:10.743Z,96836.66
2023-05-12T00:24:12.709Z,96833.91
2023-05-12T00:29:14.669Z,96838.00
2023-05-12T00:34:16.569Z,96834.19
2023-05-12T00:39:18.300Z,96833.06
2023-05-12T00:44:20.050Z,96835.25
2023-05-12T00:49:22.119Z,96829.25
2023-05-12T00:54:25.040Z,96822.66
2023-05-12T00:59:29.503Z,96825.38
2023-05-12T01:04:32.728Z,96828.06
2023-05-12T01:09:34.527Z,96824.81
2023-05-12T01:14:36.703Z,96830.03
2023-05-12T01:19:52.034Z,96827.25
2023-05-12T01:25:05.372Z,96829.19
2023-05-12T01:30:09.443Z,96824.53
2023-05-12T01:35:11.821Z,96823.19
2023-05-12T01:40:18.748Z,96821.59
2023-05-12T01:45:20.755Z,96823.81
2023-05-12T01:50:23.946Z,96823.50
2023-05-12T01:55:25.828Z,96827.66
2023-05-12T02:00:33.255Z,96823.81
2023-05-12T02:05:36.754Z,96825.97
2023-05-12T02:10:38.927Z,96825.44
2023-05-12T02:15:40.840Z,96827.41
2023-05-12T02:20:43.665Z,96818.88
2023-05-12T02:25:45.411Z,96823.03
2023-05-12T02:30:49.053Z,96822.75
2023-05-12T02:35:51.668Z,96820.50
2023-05-12T02:40:53.634Z,96816.16
2023-05-12T02:45:56.227Z,96819.47
2023-05-12T02:50:57.951Z,96811.81
2023-05-12T02:55:59.903Z,96821.44
2023-05-12T03:01:09.774Z,96817.31
2023-05-12T03:06:13.913Z,96814.63
2023-05-12T03:11:15.680Z,96817.06
2023-05-12T03:16:19.754Z,96819.53
2023-05-12T03:21:23.373Z,96823.88
2023-05-12T03:26:25.168Z,96814.22
2023-05-12T03:31:27.418Z,96815.53
2023-05-12T03:36:29.262Z,96818.06
2023-05-12T03:41:31.721Z,96815.94
2023-05-12T03:46:33.615Z,96820.59
2023-05-12T03:51:35.532Z,96817.31
2023-05-12T03:56:37.865Z,96815.66
2023-05-12T04:01:39.940Z,96818.88
2023-05-12T04:06:41.687Z,96815.03
2023-05-12T04:11:43.470Z,96820.47
2023-05-12T04:16:45.339Z,96808.91
2023-05-12T04:21:47.066Z,96821.81
2023-05-12T04:26:48.914Z,96822.19
2023-05-12T04:31:50.972Z,96828.19
2023-05-12T04:36:53.075Z,96836.34
2023-05-12T04:41:55.587Z,96838.44
2023-05-12T04:46:58.037Z,96850.75
2023-05-12T04:52:00.206Z,96844.47
2023-05-12T04:57:02.065Z,96856.22
2023-05-12T05:02:04.007Z,96857.63
2023-05-12T05:07:05.940Z,96853.28
2023-05-12T05:12:08.800Z,96850.81
2023-05-12T05:17:12.283Z,96854.19
2023-05-12T05:22:15.946Z,96862.88
2023-05-12T05:27:19.611Z,96865.38
2023-05-12T05:32:21.818Z,96866.84
2023-05-12T05:37:24.363Z,96868.50
2023-05-12T05:42:26.304Z,96874.00
2023-05-12T05:47:28.821Z,96873.88
2023-05-12T05:52:30.752Z,96870.00
2023-05-12T05:57:32.460Z,96871.06
2023-05-12T06:02:36.092Z,96879.41
2023-05-12T06:07:37.940Z,96871.94
2023-05-12T06:12:41.098Z,96875.38
2023-05-12T06:17:42.819Z,96877.13
2023-05-12T06:22:44.585Z,96879.88
2023-05-12T06:27:46.272Z,96877.66
2023-05-12T06:32:48.029Z,96887.50
2023-05-12T06:37:51.034Z,96892.53
2023-05-12T06:42:52.796Z,96890.38
2023-05-12T06:47:55.773Z,96893.53
2023-05-12T06:52:57.794Z,96897.16
2023-05-12T06:57:59.834Z,96901.00
2023-05-12T07:03:01.721Z,96896.78
2023-05-12T07:08:03.534Z,96905.44
2023-05-12T07:13:05.275Z,96898.66
2023-05-12T07:18:07.481Z,96905.91
2023-05-12T07:23:09.333Z,96905.44
2023-05-12T07:28:11.425Z,96904.97
2023-05-12T07:33:13.411Z,96908.19
2023-05-12T07:38:15.344Z,96899.81
2023-05-12T07:43:17.520Z,96909.44
2023-05-12T07:48:19.156Z,96907.09
2023-05-12T07:53:20.802Z,96903.59
2023-05-12T07:58:22.604Z,96902.03
2023-05-12T08:03:24.444Z,96900.66
2023-05-12T08:08:26.408Z,96904.75
2023-05-12T08:13:28.300Z,96910.53
2023-05-12T08:18:30.292Z,96905.91
2023-05-12T08:23:32.649Z,96903.22
2023-05-12T08:28:34.393Z,96905.16
2023-05-12T08:33:36.411Z,96909.53
2023-05-12T08:38:38.379Z,96903.59
2023-05-12T08:43:52.902Z,96910.75
2023-05-12T08:48:55.787Z,96909.78
2023-05-12T08:53:57.448Z,96914.69
2023-05-12T08:59:00.953Z,96915.97
2023-05-12T09:04:04.489Z,96917.53
2023-05-12T09:09:06.138Z,96925.66
2023-05-12T09:14:22.045Z,96926.91
2023-05-12T09:19:24.427Z,96927.94
2023-05-12T09:24:39.506Z,96924.81
2023-05-12T09:29:59.347Z,96926.63
2023-05-12T09:35:04.032Z,96927.50
2023-05-12T09:40:07.804Z,96923.03
2023-05-12T09:45:10.143Z,96929.28
2023-05-12T09:50:12.578Z,96931.13
2023-05-12T09:55:14.444Z,96933.72
2023-05-12T10:00:36.544Z,96928.22
2023-05-12T10:05:48.859Z,96928.16
2023-05-12T10:10:52.405Z,96939.78
2023-05-12T10:15:58.728Z,96942.75
2023-05-12T10:21:01.276Z,96940.13
2023-05-12T10:26:03.804Z,96938.44
2023-05-12T10:31:07.518Z,96940.72
2023-05-12T10:36:19.616Z,96950.00
2023-05-12T10:41:32.606Z,96948.69
2023-05-12T10:46:34.590Z,96950.16
2023-05-12T10:51:45.551Z,96957.38
2023-05-12T10:56:48.467Z,96961.16
2023-05-12T11:02:03.049Z,96967.00
2023-05-12T11:07:07.927Z,96961.03
2023-05-12T11:12:12.090Z,96965.94
2023-05-12T11:17:14.861Z,96973.66
2023-05-12T11:22:22.315Z,96974.59
2023-05-12T11:27:24.326Z,96972.84
2023-05-12T11:32:26.818Z,96972.84
2023-05-12T11:37:28.890Z,96976.56
2023-05-12T11:42:30.811Z,96976.63
2023-05-12T11:47:32.491Z,96972.69
2023-05-12T11:52:34.965Z,96981.34
2023-05-12T11:57:37.127Z,96997.16
2023-05-12T12:02:43.148Z,96996.88
2023-05-12T12:07:44.845Z,96990.94
2023-05-12T12:12:46.566Z,96992.38
2023-05-12T12:17:48.488Z,96989.50
2023-05-12T12:22:51.308Z,96992.13
2023-05-12T12:27:53.163Z,96998.13
2023-05-12T12:32:54.925Z,96999.31
2023-05-12T12:37:56.696Z,96995.53
2023-05-12T12:42:58.392Z,96993.81
2023-05-12T12:48:00.263Z,96993.09
2023-05-12T12:53:03.215Z,97000.97
2023-05-12T12:58:05.161Z,97002.53
2023-05-12T13:03:08.211Z,96998.56
2023-05-12T13:08:10.198Z,96999.94
2023-05-12T13:13:12.028Z,96995.38
2023-05-12T13:18:13.791Z,96994.94
2023-05-12T13:23:15.613Z,96993.88
2023-05-12T13:28:18.040Z,96986.91
2023-05-12T13:33:20.155Z,96993.53
2023-05-12T13:38:22.398Z,96993.69
2023-05-12T13:43:24.455Z,96989.03
2023-05-12T13:48:26.469Z,96998.81
2023-05-12T13:53:28.195Z,96997.97
2023-05-12T13:58:29.880Z,97004.94
2023-05-12T14:03:32.548Z,97004.00
2023-05-12T14:08:34.662Z,97010.91
2023-05-12T14:13:36.727Z,97014.72
2023-05-12T14:18:38.495Z,97009.84
2023-05-12T14:23:40.182Z,97024.28
2023-05-12T14:28:41.852Z,97027.03
2023-05-12T14:33:43.977Z,97019.81
2023-05-12T14:38:48.535Z,97021.34
2023-05-12T14:43:50.321Z,97026.25
2023-05-12T14:48:52.255Z,97020.91
2023-05-12T14:53:56.503Z,97022.38
2023-05-12T14:58:58.265Z,97029.94
2023-05-12T15:04:00.021Z,97031.16
2023-05-12T15:09:01.815Z,97037.91
2023-05-12T15:14:04.765Z,97042.63
2023-05-12T15:19:06.546Z,97043.78
2023-05-12T15:24:08.607Z,97048.22
2023-05-12T15:29:10.656Z,97046.09
2023-05-12T15:34:12.437Z,97041.13
2023-05-12T15:39:16.163Z,97042.25
2023-05-12T15:44:18.577Z,97045.34
2023-05-12T15:49:20.284Z,97056.63
2023-05-12T15:54:21.918Z,97048.94
2023-05-12T15:59:23.648Z,97048.41
2023-05-12T16:04:29.639Z,97047.69
2023-05-12T16:09:31.806Z,97051.28
2023-05-12T16:14:33.995Z,97051.34
2023-05-12T16:19:35.732Z,97050.25
2023-05-12T16:24:37.420Z,97047.53
2023-05-12T16:29:39.164Z,97042.03
2023-05-12T16:34:40.831Z,97040.94
2023-05-12T16:39:42.656Z,97040.38
2023-05-12T16:44:44.458Z,97042.53
2023-05-12T16:49:46.237Z,97037.56
2023-05-12T16:54:48.046Z,97045.00
2023-05-12T16:59:50.585Z,97041.97
2023-05-12T17:04:52.429Z,97031.47
2023-05-12T17:09:54.150Z,97032.88
2023-05-12T17:15:06.980Z,97032.59
2023-05-12T17:20:11.758Z,97029.22
2023-05-12T17:25:13.713Z,97046.25
2023-05-12T17:30:16.637Z,97035.78
2023-05-12T17:35:18.632Z,97031.13
2023-05-12T17:40:20.962Z,97045.38
2023-05-12T17:45:22.811Z,97053.88
2023-05-12T17:50:25.152Z,97055.22
2023-05-12T17:55:27.036Z,97058.75
2023-05-12T18:00:28.878Z,97052.44
2023-05-12T18:05:30.660Z,97066.47
2023-05-12T18:10:32.344Z,97070.13
2023-05-12T18:15:34.006Z,97063.28
2023-05-12T18:20:36.507Z,97064.44
2023-05-12T18:25:38.346Z,97067.19
2023-05-12T18:30:40.174Z,97076.00
2023-05-12T18:35:42.064Z,97077.16
2023-05-12T18:40:44.723Z,97083.78
2023-05-12T18:45:46.792Z,97077.25
2023-05-12T18:50:48.900Z,97085.25
2023-05-12T18:55:51.528Z,97092.41
2023-05-12T19:00:53.480Z,97095.44
2023-05-12T19:05:55.626Z,97100.38
2023-05-12T19:10:57.437Z,97097.06
2023-05-12T19:15:59.196Z,97101.47
2023-05-12T19:21:02.288Z,97111.63
2023-05-12T19:26:04.021Z,97117.97
2023-05-12T19:31:05.764Z,97113.53
2023-05-12T19:36:07.814Z,97123.44
2023-05-12T19:41:10.074Z,97120.16
2023-05-12T19:46:12.087Z,97129.50
2023-05-12T19:51:13.858Z,97125.66
2023-05-12T19:56:15.541Z,97117.44
2023-05-12T20:01:17.249Z,97121.28
2023-05-12T20:06:20.359Z,97121.88
2023-05-12T20:11:22.019Z,97120.25
2023-05-12T20:16:23.761Z,97132.66
2023-05-12T20:21:25.489Z,97124.75
2023-05-12T20:26:27.780Z,97126.97
2023-05-12T20:31:29.621Z,97129.97
2023-05-12T20:36:31.519Z,97120.94
2023-05-12T20:41:33.689Z,97120.38
2023-05-12T20:46:38.308Z,97114.03
2023-05-12T20:51:40.490Z,97108.00
2023-05-12T20:56:42.165Z,97116.53
2023-05-12T21:01:43.948Z,97117.09
2023-05-12T21:06:45.717Z,97115.97
2023-05-12T21:11:47.497Z,97116.53
2023-05-12T21:16:49.183Z,97124.56
2023-05-12T21:21:51.031Z,97127.84
2023-05-12T21:26:52.654Z,97132.00
2023-05-12T21:31:54.533Z,97127.03
2023-05-12T21:36:56.449Z,97117.72
2023-05-12T21:41:58.116Z,97127.91
2023-05-12T21:46:59.813Z,97125.50
2023-05-12T21:52:01.616Z,97129.34
2023-05-12T21:57:03.600Z,97129.91
2023-05-12T22:02:05.618Z,97134.31
2023-05-12T22:07:08.244Z,97132.13
2023-05-12T22:12:15.154Z,97129.94
2023-05-12T22:17:16.852Z,97134.88
2023-05-12T22:22:18.738Z,97127.22
2023-05-12T22:27:22.368Z,97126.13
2023-05-12T22:32:24.209Z,97125.56
2023-05-12T22:37:26.078Z,97125.03
2023-05-12T22:42:27.732Z,97128.03
2023-05-12T22:47:31.585Z,97121.19
2023-05-12T22:52:33.314Z,97125.56
2023-05-12T22:57:35.037Z,97123.38
2023-05-12T23:02:36.739Z,97118.75
2023-05-12T23:07:38.376Z,97112.97
2023-05-12T23:12:40.223Z,97113.25
2023-05-12T23:17:41.951Z,97116.81
2023-05-12T23:22:43.782Z,97107.22
2023-05-12T23:27:45.598Z,97111.91
2023-05-12T23:32:50.276Z,97103.41
2023-05-12T23:37:52.037Z,97106.13
2023-05-12T23:42:53.873Z,97095.69
2023-05-12T23:47:55.740Z,97095.41
2023-05-12T23:52:57.986Z,97093.50
2023-05-12T23:57:59.976Z,97091.59
